地図

経路データ

SID SEASON NUMBER BASIN SUBBASIN NAME ISO_TIME NATURE LAT LON WMO_WIND WMO_PRES WMO_AGENCY TRACK_TYPE DIST2LAND LANDFALL IFLAG USA_AGENCY USA_ATCF_ID USA_LAT USA_LON USA_RECORD USA_STATUS USA_WIND USA_PRES USA_SSHS USA_R34_NE USA_R34_SE USA_R34_SW USA_R34_NW USA_R50_NE USA_R50_SE USA_R50_SW USA_R50_NW USA_R64_NE USA_R64_SE USA_R64_SW USA_R64_NW USA_POCI USA_ROCI USA_RMW USA_EYE TOKYO_LAT TOKYO_LON TOKYO_GRADE TOKYO_WIND TOKYO_PRES TOKYO_R50_DIR TOKYO_R50_LONG TOKYO_R50_SHORT TOKYO_R30_DIR TOKYO_R30_LONG TOKYO_R30_SHORT TOKYO_LAND CMA_LAT CMA_LON CMA_CAT CMA_WIND CMA_PRES HKO_LAT HKO_LON HKO_CAT HKO_WIND HKO_PRES NEWDELHI_LAT NEWDELHI_LON NEWDELHI_GRADE NEWDELHI_WIND NEWDELHI_PRES NEWDELHI_CI NEWDELHI_DP NEWDELHI_POCI REUNION_LAT REUNION_LON REUNION_TYPE REUNION_WIND REUNION_PRES REUNION_TNUM REUNION_CI REUNION_RMW REUNION_R34_NE REUNION_R34_SE REUNION_R34_SW REUNION_R34_NW REUNION_R50_NE REUNION_R50_SE REUNION_R50_SW REUNION_R50_NW REUNION_R64_NE REUNION_R64_SE REUNION_R64_SW REUNION_R64_NW BOM_LAT BOM_LON BOM_TYPE BOM_WIND BOM_PRES BOM_TNUM BOM_CI BOM_RMW BOM_R34_NE BOM_R34_SE BOM_R34_SW BOM_R34_NW BOM_R50_NE BOM_R50_SE BOM_R50_SW BOM_R50_NW BOM_R64_NE BOM_R64_SE BOM_R64_SW BOM_R64_NW BOM_ROCI BOM_POCI BOM_EYE BOM_POS_METHOD BOM_PRES_METHOD NADI_LAT NADI_LON NADI_CAT NADI_WIND NADI_PRES WELLINGTON_LAT WELLINGTON_LON WELLINGTON_WIND WELLINGTON_PRES DS824_LAT DS824_LON DS824_STAGE DS824_WIND DS824_PRES TD9636_LAT TD9636_LON TD9636_STAGE TD9636_WIND TD9636_PRES TD9635_LAT TD9635_LON TD9635_WIND TD9635_PRES TD9635_ROCI NEUMANN_LAT NEUMANN_LON NEUMANN_CLASS NEUMANN_WIND NEUMANN_PRES MLC_LAT MLC_LON MLC_CLASS MLC_WIND MLC_PRES USA_GUST BOM_GUST BOM_GUST_PER REUNION_GUST REUNION_GUST_PER USA_SEAHGT USA_SEARAD_NE USA_SEARAD_SE USA_SEARAD_SW USA_SEARAD_NW STORM_SPEED STORM_DIR
1901115N06074 1901 16 NI AS NOT_NAMED 1901-04-25 00:00:00 TS 6.30000 73.5000 main 440 440 _________O____ -1 6.30000 73.5000 TC 30 4 314
1901115N06074 1901 16 NI AS NOT_NAMED 1901-04-25 03:00:00 TS 6.43001 73.3650 main 442 442 _________PO___ -1 6.49502 73.2975 TC 30 6.30000 73.5000 1 4 316
1901115N06074 1901 16 NI AS NOT_NAMED 1901-04-25 06:00:00 TS 6.61500 73.1887 main 445 442 _________OP___ -1 6.70000 73.1000 TC 30 6.48751 73.3218 1 5 318
1901115N06074 1901 16 NI AS NOT_NAMED 1901-04-25 09:00:00 TS 6.82570 73.0049 main 451 446 _________PP___ -1 6.92748 72.9074 TC 30 6.68999 73.1348 1 6 320
1901115N06074 1901 16 NI AS NOT_NAMED 1901-04-25 12:00:00 TS 7.06124 72.8152 main 454 454 _________OP___ -1 7.20000 72.7000 TC 30 6.92248 72.9304 1 7 322
1901115N06074 1901 16 NI AS NOT_NAMED 1901-04-25 15:00:00 TS 7.37125 72.5788 main 461 461 _________PO___ -1 7.54250 72.4575 TC 31 7.20000 72.7000 1 8 323
1901115N06074 1901 16 NI AS NOT_NAMED 1901-04-25 18:00:00 TS 7.71441 72.3201 main 479 475 _________OP___ -1 7.90000 72.2000 TC 32 7.52882 72.4403 1 9 322
1901115N06074 1901 16 NI AS NOT_NAMED 1901-04-25 21:00:00 TS 8.05506 72.0490 main 494 491 _________PP___ -1 8.23001 71.9275 TC 33 7.88011 72.1704 1 8 322
1901115N06074 1901 16 NI AS NOT_NAMED 1901-04-26 00:00:00 TS 8.35817 71.8076 main 507 507 _________OP___ -1 8.50000 71.7000 TC 34 8.21634 71.9153 1 7 323
1901115N06074 1901 16 NI AS NOT_NAMED 1901-04-26 03:00:00 TS 8.58998 71.6387 main 524 522 _________PO___ -1 8.67997 71.5774 TC 41 8.50000 71.7000 2 5 324
1901115N06074 1901 16 NI AS NOT_NAMED 1901-04-26 06:00:00 TS 8.73712 71.5324 main 533 531 _________OP___ -1 8.80000 71.5000 TC 49 8.67425 71.5647 2 3 322
1901115N06074 1901 16 NI AS NOT_NAMED 1901-04-26 09:00:00 TS 8.84366 71.4386 main 541 537 _________PP___ -1 8.89249 71.4075 TC 56 8.79484 71.4697 2 3 318
1901115N06074 1901 16 NI AS NOT_NAMED 1901-04-26 12:00:00 TS 8.94651 71.3449 main 547 536 _________OP___ -1 9.00000 71.3000 TC 64 8.89302 71.3898 2 3 321
1901115N06074 1901 16 NI AS NOT_NAMED 1901-04-26 15:00:00 TS 9.09625 71.2288 main 544 538 _________PO___ -1 9.19250 71.1575 TC 64 9.00000 71.3000 4 4 323
1901115N06074 1901 16 NI AS NOT_NAMED 1901-04-26 18:00:00 TS 9.28234 71.0842 main 540 540 _________OP___ -1 9.40000 71.0000 TC 64 9.16468 71.1684 4 5 321
1901115N06074 1901 16 NI AS NOT_NAMED 1901-04-26 21:00:00 TS 9.44999 70.9362 main 553 547 _________PP___ -1 9.55749 70.8500 TC 64 9.34249 71.0225 4 4 318
1901115N06074 1901 16 NI AS NOT_NAMED 1901-04-27 00:00:00 TS 9.61202 70.7827 main 550 550 _________OP___ -1 9.70000 70.7000 TC 64 9.52405 70.8653 4 4 317
1901115N06074 1901 16 NI AS NOT_NAMED 1901-04-27 03:00:00 TS 9.77499 70.6287 main 559 554 _________PO___ -1 9.84998 70.5575 TC 64 9.70000 70.7000 4 4 316
1901115N06074 1901 16 NI AS NOT_NAMED 1901-04-27 06:00:00 TS 9.92449 70.4741 main 564 564 _________OP___ -1 10.0000 70.4000 TC 64 9.84898 70.5483 4 4 312
1901115N06074 1901 16 NI AS NOT_NAMED 1901-04-27 09:00:00 TS 10.0674 70.3011 main 573 573 _________PP___ -1 10.1425 70.2150 TC 64 9.99237 70.3873 4 5 309
1901115N06074 1901 16 NI AS NOT_NAMED 1901-04-27 12:00:00 TS 10.2198 70.1038 main 588 583 _________OP___ -1 10.3000 70.0000 TC 64 10.1396 70.2076 4 5 309
1901115N06074 1901 16 NI AS NOT_NAMED 1901-04-27 15:00:00 TS 10.3962 69.8825 main 597 597 _________PO___ -1 10.4925 69.7650 TC 64 10.3000 70.0000 4 6 308
1901115N06074 1901 16 NI AS NOT_NAMED 1901-04-27 18:00:00 TS 10.5908 69.6269 main 617 617 _________OP___ -1 10.7000 69.5000 TC 64 10.4816 69.7537 4 7 307
1901115N06074 1901 16 NI AS NOT_NAMED 1901-04-27 21:00:00 TS 10.7888 69.3437 main 639 639 _________PP___ -1 10.9000 69.2075 TC 64 10.6775 69.4800 4 7 305
1901115N06074 1901 16 NI AS NOT_NAMED 1901-04-28 00:00:00 TS 10.9924 69.0456 main 662 662 _________OP___ -1 11.1000 68.9000 TC 64 10.8847 69.1912 4 7 305
1901115N06074 1901 16 NI AS NOT_NAMED 1901-04-28 03:00:00 TS 11.1962 68.7462 main 687 684 _________PO___ -1 11.2925 68.5925 TC 64 11.1000 68.9000 4 7 306
1901115N06074 1901 16 NI AS NOT_NAMED 1901-04-28 06:00:00 TS 11.4068 68.4725 main 703 703 _________OP___ -1 11.5000 68.3000 TC 64 11.3135 68.6451 4 7 311
1901115N06074 1901 16 NI AS NOT_NAMED 1901-04-28 09:00:00 TS 11.6385 68.2260 main 730 724 _________PP___ -1 11.7424 68.0649 TC 64 11.5347 68.3871 4 7 313
1901115N06074 1901 16 NI AS NOT_NAMED 1901-04-28 12:00:00 TS 11.8817 67.9553 main 731 731 _________OP___ -1 12.0000 67.8000 TC 64 11.7635 68.1106 4 8 309
1901115N06074 1901 16 NI AS NOT_NAMED 1901-04-28 15:00:00 TS 12.1250 67.6112 main 759 754 _________PO___ -1 12.2500 67.4225 TC 64 12.0000 67.8000 4 9 304
1901115N06074 1901 16 NI AS NOT_NAMED 1901-04-28 18:00:00 TS 12.3715 67.2099 main 784 784 _________OP___ -1 12.5000 67.0000 TC 64 12.2430 67.4198 4 9 302
1901115N06074 1901 16 NI AS NOT_NAMED 1901-04-28 21:00:00 TS 12.6214 66.7963 main 816 816 _________PP___ -1 12.7500 66.5850 TC 64 12.4928 67.0076 4 9 302
1901115N06074 1901 16 NI AS NOT_NAMED 1901-04-29 00:00:00 TS 12.8731 66.3958 main 843 843 _________OP___ -1 13.0000 66.2000 TC 64 12.7461 66.5916 4 9 304
1901115N06074 1901 16 NI AS NOT_NAMED 1901-04-29 03:00:00 TS 13.1250 66.0424 main 872 867 _________PO___ -1 13.2499 65.8849 TC 64 13.0000 66.2000 4 8 308
1901115N06074 1901 16 NI AS NOT_NAMED 1901-04-29 06:00:00 TS 13.3728 65.7375 main 887 887 _________OP___ -1 13.5000 65.6000 TC 64 13.2456 65.8749 4 8 310
1901115N06074 1901 16 NI AS NOT_NAMED 1901-04-29 09:00:00 TS 13.6173 65.4384 main 908 904 _________PP___ -1 13.7425 65.2999 TC 64 13.4921 65.5770 4 8 311
1901115N06074 1901 16 NI AS NOT_NAMED 1901-04-29 12:00:00 TS 13.8713 65.1453 main 926 926 _________OP___ -1 14.0000 65.0000 TC 64 13.7425 65.2905 4 8 313
1901115N06074 1901 16 NI AS NOT_NAMED 1901-04-29 15:00:00 TS 14.1500 64.8537 main 934 879 _________PO___ -1 14.2999 64.7075 TC 64 14.0000 65.0000 4 8 314
1901115N06074 1901 16 NI AS NOT_NAMED 1901-04-29 18:00:00 TS 14.4461 64.5291 main 879 833 _________OP___ -1 14.6000 64.4000 TC 64 14.2923 64.6581 4 9 311
1901115N06074 1901 16 NI AS NOT_NAMED 1901-04-29 21:00:00 TS 14.7301 64.1703 main 833 788 _________PP___ -1 14.8726 64.0276 TC 64 14.5877 64.3129 4 9 309
1901115N06074 1901 16 NI AS NOT_NAMED 1901-04-30 00:00:00 TS 14.9821 63.8431 main 779 748 _________OP___ -1 15.1000 63.7000 TC 64 14.8642 63.9863 4 7 310
1901115N06074 1901 16 NI AS NOT_NAMED 1901-04-30 03:00:00 TS 15.1862 63.6137 main 748 724 _________PO___ -1 15.2724 63.5274 TC 64 15.1000 63.7000 4 5 312
1901115N06074 1901 16 NI AS NOT_NAMED 1901-04-30 06:00:00 TS 15.3380 63.4367 main 724 703 _________OP___ -1 15.4000 63.4000 TC 64 15.2760 63.4734 4 5 308
1901115N06074 1901 16 NI AS NOT_NAMED 1901-04-30 09:00:00 TS 15.4624 63.2448 main 694 679 _________PP___ -1 15.5150 63.2000 TC 64 15.4097 63.2895 4 4 302
1901115N06074 1901 16 NI AS NOT_NAMED 1901-04-30 12:00:00 TS 15.5568 63.0680 main 679 661 _________OP___ -1 15.6000 63.0000 TC 64 15.5136 63.1360 4 4 297
1901115N06074 1901 16 NI AS NOT_NAMED 1901-04-30 15:00:00 TS 15.6250 62.9175 main 661 646 _________PO___ -1 15.6500 62.8350 TC 64 15.6000 63.0000 4 3 294
1901115N06074 1901 16 NI AS NOT_NAMED 1901-04-30 18:00:00 TS 15.6763 62.7903 main 646 637 _________OP___ -1 15.7000 62.7000 TC 64 15.6526 62.8805 4 2 296
1901115N06074 1901 16 NI AS NOT_NAMED 1901-04-30 21:00:00 TS 15.7298 62.6934 main 637 622 _________PP___ -1 15.7624 62.6149 TC 64 15.6972 62.7718 4 3 307
1901115N06074 1901 16 NI AS NOT_NAMED 1901-05-01 00:00:00 TS 15.8341 62.5761 main 622 592 _________OP___ -1 15.9000 62.5000 TC 64 15.7682 62.6523 4 4 316
1901115N06074 1901 16 NI AS NOT_NAMED 1901-05-01 03:00:00 TS 16.0350 62.3863 main 592 555 _________PO___ -1 16.1700 62.2726 TC 64 15.9000 62.5000 4 6 319
1901115N06074 1901 16 NI AS NOT_NAMED 1901-05-01 06:00:00 TS 16.3197 62.1431 main 546 510 _________OP___ -1 16.5000 62.0000 TC 64 16.1395 62.2862 4 8 321
1901115N06074 1901 16 NI AS NOT_NAMED 1901-05-01 09:00:00 TS 16.6200 61.8939 main 510 465 _________PP___ -1 16.8000 61.7499 TC 64 16.4401 62.0379 4 8 322
1901115N06074 1901 16 NI AS NOT_NAMED 1901-05-01 12:00:00 TS 16.9354 61.6353 main 465 430 _________OP___ -1 17.1000 61.5000 TC 64 16.7707 61.7705 4 8 322
1901115N06074 1901 16 NI AS NOT_NAMED 1901-05-01 15:00:00 TS 17.2537 61.3750 main 425 386 _________PO___ -1 17.4075 61.2500 TC 64 17.1000 61.5000 4 8 319
1901115N06074 1901 16 NI AS NOT_NAMED 1901-05-01 18:00:00 TS 17.5066 61.1146 main 386 358 _________OP___ -1 17.7000 61.0000 TC 64 17.3133 61.2291 4 7 313
1901115N06074 1901 16 NI AS NOT_NAMED 1901-05-01 21:00:00 TS 17.7138 60.8557 main 358 315 _________PP___ -1 17.8975 60.7496 TC 64 17.5302 60.9617 4 7 316
1901115N06074 1901 16 NI AS NOT_NAMED 1901-05-02 00:00:00 TS 18.0035 60.6068 main 315 279 _________OP___ -1 18.2000 60.5000 TC 64 17.8070 60.7135 4 9 329
1901115N06074 1901 16 NI AS NOT_NAMED 1901-05-02 03:00:00 TS 18.4875 60.3565 main 279 221 _________PO___ -1 18.7751 60.2130 TC 64 18.2000 60.5000 4 12 339
1901115N06074 1901 16 NI AS NOT_NAMED 1901-05-02 06:00:00 TS 19.1531 60.1399 main 214 168 _________OP___ -1 19.5000 60.0000 TC 64 18.8061 60.2798 4 14 347
1901115N06074 1901 16 NI AS NOT_NAMED 1901-05-02 09:00:00 TS 19.8911 60.0212 main 162 115 _________PP___ -1 20.2574 59.9398 TC 64 19.5248 60.1025 4 15 355
1901115N06074 1901 16 NI AS NOT_NAMED 1901-05-02 12:00:00 TS 20.6406 59.9994 main 115 70 _________OP___ -1 21.0000 60.0000 TC 64 20.2811 59.9988 4 14 1
1901115N06074 1901 16 NI AS NOT_NAMED 1901-05-02 15:00:00 TS 21.3224 60.0488 main 70 52 _________PO___ -1 21.6449 60.0976 TC 64 21.0000 60.0000 4 13 7
1901115N06074 1901 16 NI AS NOT_NAMED 1901-05-02 18:00:00 TS 21.8766 60.1714 main 53 42 _________OP___ -1 22.2000 60.3000 TC 64 21.5533 60.0428 4 11 16
1901115N06074 1901 16 NI AS NOT_NAMED 1901-05-02 21:00:00 TS 22.3519 60.3753 main 61 61 _________PP___ -1 22.6418 60.5463 TC 64 22.0620 60.2043 4 11 30
1901115N06074 1901 16 NI AS NOT_NAMED 1901-05-03 00:00:00 TS 22.8324 60.7567 main 111 111 _________OP___ -1 23.1000 61.0000 TC 64 22.5649 60.5134 4 14 41
1901115N06074 1901 16 NI AS NOT_NAMED 1901-05-03 03:00:00 TS 23.4102 61.3836 main 183 115 _________PO___ -1 23.7204 61.7671 TC 55 23.1000 61.0000 4 18 47
1901115N06074 1901 16 NI AS NOT_NAMED 1901-05-03 06:00:00 TS 24.0663 62.1982 main 108 55 _________OP___ -1 24.4000 62.7000 TC 47 23.7326 61.6965 4 20 50
1901115N06074 1901 16 NI AS NOT_NAMED 1901-05-03 09:00:00 TS 24.7340 63.0833 main 56 10 _________PP___ -1 25.0722 63.6002 TC 38 24.3957 62.5663 4 21 51
1901115N06074 1901 16 NI AS NOT_NAMED 1901-05-03 12:00:00 TS 25.3803 64.0143 main 10 0 _________OP___ -1 25.7000 64.5000 TC 30 25.0606 63.5286 4 21 54
1901115N06074 1901 16 NI AS NOT_NAMED 1901-05-03 15:00:00 TS 25.9534 64.9296 main 0 0 _________PO___ -1 26.2069 65.3591 TC 30 25.7000 64.5000 1 20 55
1901115N06074 1901 16 NI AS NOT_NAMED 1901-05-03 18:00:00 TS 26.4914 65.8036 main 0 0 _________OP___ -1 26.7000 66.2000 TC 30 26.2827 65.4072 1 19 55
1901115N06074 1901 16 NI AS NOT_NAMED 1901-05-03 21:00:00 TS 27.0690 66.6967 main 0 0 _________PP___ -1 27.3002 67.0945 TC 30 26.8378 66.2988 1 19 53
1901115N06074 1901 16 NI AS NOT_NAMED 1901-05-04 00:00:00 TS 27.6369 67.5206 main 0 0 _________OP___ -1 27.9000 67.9000 TC 30 27.3738 67.1412 1 17 51
1901115N06074 1901 16 NI AS NOT_NAMED 1901-05-04 03:00:00 TS 28.1533 68.1983 main 0 0 _________PO___ -1 28.4066 68.4965 TC 30 27.9000 67.9000 1 15 47
1901115N06074 1901 16 NI AS NOT_NAMED 1901-05-04 06:00:00 TS 28.6689 68.7757 main 0 0 _________OP___ -1 28.9000 69.0000 TC 30 28.4377 68.5514 1 15 43
1901115N06074 1901 16 NI AS NOT_NAMED 1901-05-04 09:00:00 TS 29.2134 69.3369 main 0 0 _________PP___ -1 29.4574 69.5576 TC 30 28.9694 69.1161 1 14 41
1901115N06074 1901 16 NI AS NOT_NAMED 1901-05-04 12:00:00 TS 29.7457 69.8614 main 0 0 _________OP___ -1 30.0000 70.1000 TC 30 29.4915 69.6228 1 14 41
1901115N06074 1901 16 NI AS NOT_NAMED 1901-05-04 15:00:00 TS 30.2286 70.3579 main 0 0 _________PO___ -1 30.4573 70.6158 TC 30 30.0000 70.1000 1 12 41
1901115N06074 1901 16 NI AS NOT_NAMED 1901-05-04 18:00:00 TS 30.6668 70.7985 main 0 0 _________OP___ -1 30.9000 71.1000 TC 30 30.4919 70.5724 1 12 40
1901115N06074 1901 16 NI AS NOT_NAMED 1901-05-04 21:00:00 TS 31.1360 71.2500 main 0 0 _________PP___ -1 31.3853 71.5564 TC 30 30.9698 71.0457 1 12 39
1901115N06074 1901 16 NI AS NOT_NAMED 1901-05-05 00:00:00 TS 31.5919 71.6808 main 0 0 _________OP___ -1 31.9000 72.0000 TC 30 31.4379 71.5212 1 10 40
1901115N06074 1901 16 NI AS NOT_NAMED 1901-05-05 03:00:00 NR 31.9000 72.0000 main 0 __________O___ -1 TC 31.9000 72.0000 1 8 41

IBTrACS Databaseについて

本データベースは、米国NOAAが公開する1842年以降の世界の熱帯低気圧のベストトラックデータアーカイブInternational Best Track Archive for Climate Stewardship (IBTrACS)を、ウェブで閲覧しやすい形式に変換したものです。

最終更新日:2021-10-25